createdAt,value
2023-03-05T00:01:24.295Z,12.93
2023-03-05T00:03:54.938Z,15.10
2023-03-05T00:06:23.826Z,15.57
2023-03-05T00:08:53.425Z,15.50
2023-03-05T00:11:21.315Z,11.40
2023-03-05T00:13:48.849Z,10.50
2023-03-05T00:16:16.400Z,11.23
2023-03-05T00:18:43.726Z,12.70
2023-03-05T00:21:20.251Z,19.77
2023-03-05T00:23:46.947Z,13.60
2023-03-05T00:26:13.576Z,11.77
2023-03-05T00:28:40.379Z,10.17
2023-03-05T00:31:07.048Z,9.20
2023-03-05T00:33:34.072Z,7.50
2023-03-05T00:36:06.551Z,8.73
2023-03-05T00:38:33.648Z,9.90
2023-03-05T00:41:00.303Z,9.57
2023-03-05T00:43:27.123Z,7.97
2023-03-05T00:45:53.989Z,9.37
2023-03-05T00:48:22.422Z,12.80
2023-03-05T00:50:52.867Z,17.97
2023-03-05T00:53:19.860Z,12.00
2023-03-05T00:55:46.901Z,10.90
2023-03-05T00:58:13.629Z,20.87
2023-03-05T01:00:41.239Z,9.87
2023-03-05T01:03:09.259Z,12.27
2023-03-05T01:05:36.123Z,8.83
2023-03-05T01:08:03.319Z,11.10
2023-03-05T01:10:30.346Z,12.63
2023-03-05T01:12:57.799Z,12.70
2023-03-05T01:15:25.529Z,14.87
2023-03-05T01:17:52.364Z,15.47
2023-03-05T01:20:22.220Z,47.13
2023-03-05T01:22:49.152Z,17.73
2023-03-05T01:25:17.332Z,20.67
2023-03-05T01:27:44.195Z,26.07
2023-03-05T01:30:14.124Z,26.23
2023-03-05T01:32:41.000Z,17.00
2023-03-05T01:35:08.887Z,13.07
2023-03-05T01:37:35.546Z,12.40
2023-03-05T01:40:02.371Z,16.63
2023-03-05T01:42:29.017Z,13.67
2023-03-05T01:45:02.429Z,13.17
2023-03-05T01:47:29.757Z,13.97
2023-03-05T01:49:57.005Z,12.53
2023-03-05T01:52:26.730Z,11.20
2023-03-05T01:55:01.183Z,11.57
2023-03-05T01:58:02.087Z,10.18
2023-03-05T02:00:33.506Z,13.60
2023-03-05T02:03:05.070Z,22.60
2023-03-05T02:05:35.220Z,15.40
2023-03-05T02:08:06.790Z,11.23
2023-03-05T02:10:37.750Z,12.30
2023-03-05T02:13:07.833Z,13.27
2023-03-05T02:15:34.702Z,10.97
2023-03-05T02:18:01.486Z,7.50
2023-03-05T02:20:31.125Z,8.20
2023-03-05T02:22:57.975Z,9.00
2023-03-05T02:25:30.065Z,9.27
2023-03-05T02:28:00.122Z,9.20
2023-03-05T02:30:28.743Z,12.57
2023-03-05T02:32:55.457Z,20.27
2023-03-05T02:35:22.376Z,10.70
2023-03-05T02:37:49.334Z,13.63
2023-03-05T02:40:17.062Z,18.80
2023-03-05T02:42:44.330Z,12.47
2023-03-05T02:45:11.907Z,8.97
2023-03-05T02:47:38.869Z,9.47
2023-03-05T02:50:06.934Z,7.87
2023-03-05T02:52:33.694Z,11.77
2023-03-05T02:55:00.462Z,8.67
2023-03-05T02:57:27.207Z,9.57
2023-03-05T02:59:53.942Z,9.27
2023-03-05T03:02:20.756Z,10.10
2023-03-05T03:04:47.469Z,10.67
2023-03-05T03:07:15.183Z,10.30
2023-03-05T03:09:43.207Z,11.23
2023-03-05T03:12:19.278Z,10.27
2023-03-05T03:14:45.987Z,12.50
2023-03-05T03:17:15.642Z,8.30
2023-03-05T03:19:43.939Z,8.50
2023-03-05T03:22:13.075Z,8.43
2023-03-05T03:24:41.011Z,10.20
2023-03-05T03:27:07.772Z,10.13
2023-03-05T03:29:35.265Z,9.07
2023-03-05T03:32:02.228Z,12.33
2023-03-05T03:34:28.895Z,10.30
2023-03-05T03:36:55.604Z,11.40
2023-03-05T03:39:22.680Z,11.37
2023-03-05T03:41:52.205Z,11.30
2023-03-05T03:44:20.751Z,10.80
2023-03-05T03:46:49.139Z,11.70
2023-03-05T03:49:24.869Z,15.90
2023-03-05T03:51:54.381Z,20.27
2023-03-05T03:54:22.303Z,14.33
2023-03-05T03:56:50.473Z,13.27
2023-03-05T03:59:17.213Z,13.93
2023-03-05T04:01:43.866Z,13.70
2023-03-05T04:04:12.466Z,18.60
2023-03-05T04:06:40.588Z,15.87
2023-03-05T04:09:08.360Z,22.77
2023-03-05T04:11:36.247Z,13.80
2023-03-05T04:14:04.065Z,11.83
2023-03-05T04:16:31.185Z,12.43
2023-03-05T04:18:57.894Z,11.50
2023-03-05T04:21:24.587Z,14.27
2023-03-05T04:23:51.262Z,12.53
2023-03-05T04:26:17.989Z,12.63
2023-03-05T04:28:44.642Z,13.83
2023-03-05T04:31:11.362Z,8.93
2023-03-05T04:33:38.119Z,8.43
2023-03-05T04:36:05.158Z,7.13
2023-03-05T04:38:32.000Z,8.07
2023-03-05T04:40:58.683Z,8.33
2023-03-05T04:43:25.361Z,8.03
2023-03-05T04:45:51.998Z,10.37
2023-03-05T04:48:19.816Z,11.37
2023-03-05T04:50:46.528Z,9.63
2023-03-05T04:53:13.650Z,10.57
2023-03-05T04:55:40.324Z,10.13
2023-03-05T04:58:07.025Z,10.63
2023-03-05T05:00:33.741Z,10.50
2023-03-05T05:03:00.452Z,12.53
2023-03-05T05:05:28.253Z,12.03
2023-03-05T05:07:57.277Z,10.53
2023-03-05T05:10:25.728Z,11.67
2023-03-05T05:12:53.663Z,12.03
2023-03-05T05:15:20.817Z,11.73
2023-03-05T05:17:47.933Z,13.43
2023-03-05T05:20:15.883Z,12.13
2023-03-05T05:22:43.715Z,9.87
2023-03-05T05:25:10.744Z,10.10
2023-03-05T05:27:39.692Z,10.90
2023-03-05T05:30:07.782Z,10.17
2023-03-05T05:32:35.094Z,10.33
2023-03-05T05:35:02.187Z,13.33
2023-03-05T05:37:30.687Z,22.07
2023-03-05T05:39:57.414Z,27.00
2023-03-05T05:42:25.226Z,24.87
2023-03-05T05:44:55.555Z,32.53
2023-03-05T05:47:22.470Z,28.90
2023-03-05T05:49:49.157Z,32.23
2023-03-05T05:52:16.365Z,36.40
2023-03-05T05:54:43.807Z,38.33
2023-03-05T05:57:10.460Z,31.93
2023-03-05T05:59:38.333Z,40.83
2023-03-05T06:02:07.910Z,34.87
2023-03-05T06:04:35.210Z,26.47
2023-03-05T06:07:03.198Z,36.67
2023-03-05T06:09:30.237Z,44.50
2023-03-05T06:11:56.901Z,45.43
2023-03-05T06:14:23.680Z,43.27
2023-03-05T06:16:50.366Z,46.07
2023-03-05T06:19:17.078Z,46.30
2023-03-05T06:21:44.334Z,48.53
2023-03-05T06:24:11.378Z,46.15
2023-03-05T06:26:38.241Z,41.53
2023-03-05T06:29:10.192Z,40.42
2023-03-05T06:31:37.416Z,43.55
2023-03-05T06:34:04.415Z,44.42
2023-03-05T06:36:31.254Z,66.20
2023-03-05T06:38:58.833Z,53.85
2023-03-05T06:41:29.015Z,53.40
2023-03-05T06:43:56.643Z,52.75
2023-03-05T06:46:29.132Z,48.78
2023-03-05T06:49:01.257Z,33.63
2023-03-05T06:51:36.675Z,34.95
2023-03-05T06:54:06.517Z,38.33
2023-03-05T06:56:36.267Z,38.83
2023-03-05T06:59:04.586Z,36.50
2023-03-05T07:01:31.354Z,29.08
2023-03-05T07:04:03.107Z,29.13
2023-03-05T07:06:32.963Z,35.10
2023-03-05T07:09:01.761Z,31.13
2023-03-05T07:11:30.101Z,35.60
2023-03-05T07:13:56.875Z,38.50
2023-03-05T07:16:26.887Z,40.40
2023-03-05T07:18:54.998Z,40.17
2023-03-05T07:21:24.669Z,46.92
2023-03-05T07:23:54.039Z,38.70
2023-03-05T07:26:21.483Z,34.65
2023-03-05T07:28:48.504Z,33.28
2023-03-05T07:31:19.501Z,19.92
2023-03-05T07:33:48.618Z,14.68
2023-03-05T07:36:16.776Z,29.85
2023-03-05T07:38:43.580Z,32.45
2023-03-05T07:41:14.004Z,26.30
2023-03-05T07:43:41.124Z,16.75
2023-03-05T07:46:10.065Z,13.38
2023-03-05T07:48:37.300Z,19.73
2023-03-05T07:51:06.846Z,13.32
2023-03-05T07:53:34.021Z,16.83
2023-03-05T07:56:00.822Z,14.55
2023-03-05T07:58:27.481Z,12.60
2023-03-05T08:00:54.175Z,10.13
2023-03-05T08:03:20.990Z,9.27
2023-03-05T08:05:47.618Z,8.18
2023-03-05T08:08:14.406Z,5.63
2023-03-05T08:10:41.137Z,7.40
2023-03-05T08:13:08.073Z,7.55
2023-03-05T08:15:34.844Z,15.60
2023-03-05T08:18:01.765Z,18.08
2023-03-05T08:20:28.966Z,19.27
2023-03-05T08:22:55.716Z,20.52
2023-03-05T08:25:22.793Z,8.98
2023-03-05T08:27:49.612Z,2.00
2023-03-05T08:30:22.397Z,2.95
2023-03-05T08:32:49.911Z,4.65
2023-03-05T08:35:16.772Z,5.63
2023-03-05T08:37:43.548Z,15.57
2023-03-05T08:40:10.956Z,10.27
2023-03-05T08:42:37.726Z,6.80
2023-03-05T08:45:04.897Z,8.52
2023-03-05T08:47:31.643Z,8.90
2023-03-05T08:49:58.801Z,9.50
2023-03-05T08:52:27.460Z,8.18
2023-03-05T08:54:54.349Z,8.15
2023-03-05T08:57:21.061Z,7.47
2023-03-05T08:59:49.167Z,6.80
2023-03-05T09:02:15.812Z,5.57
2023-03-05T09:04:42.510Z,7.53
2023-03-05T09:07:09.418Z,8.50
2023-03-05T09:09:37.189Z,6.72
2023-03-05T09:12:04.024Z,5.88
2023-03-05T09:14:30.994Z,6.85
2023-03-05T09:16:58.083Z,3.60
2023-03-05T09:19:25.233Z,6.40
2023-03-05T09:21:52.048Z,6.15
2023-03-05T09:24:19.190Z,16.65
2023-03-05T09:26:45.864Z,3.72
2023-03-05T09:29:12.673Z,8.57
2023-03-05T09:31:39.996Z,7.57
2023-03-05T09:34:08.412Z,16.25
2023-03-05T09:36:35.141Z,5.60
2023-03-05T09:39:01.968Z,4.93
2023-03-05T09:41:51.598Z,4.90
2023-03-05T09:44:24.987Z,3.33
2023-03-05T09:47:18.757Z,5.25
2023-03-05T09:50:18.656Z,6.05
2023-03-05T09:52:57.885Z,7.15
2023-03-05T09:55:34.358Z,7.70
2023-03-05T09:58:07.593Z,8.23
2023-03-05T10:00:50.438Z,8.15
2023-03-05T10:03:22.767Z,9.90
2023-03-05T10:06:16.921Z,9.48
2023-03-05T10:08:56.082Z,9.23
2023-03-05T10:11:41.161Z,15.45
2023-03-05T10:14:13.994Z,21.85
2023-03-05T10:16:46.811Z,16.65
2023-03-05T10:19:19.714Z,14.65
2023-03-05T10:21:46.308Z,12.60
2023-03-05T10:24:28.270Z,4.78
2023-03-05T10:27:06.451Z,7.47
2023-03-05T10:30:06.239Z,16.33
2023-03-05T10:32:32.938Z,8.35
2023-03-05T10:35:11.556Z,8.45
2023-03-05T10:38:12.802Z,7.00
2023-03-05T10:40:48.803Z,8.73
2023-03-05T10:43:43.783Z,11.85
2023-03-05T10:46:18.765Z,3.78
2023-03-05T10:51:28.105Z,5.82
2023-03-05T10:54:02.135Z,6.55
2023-03-05T10:56:31.918Z,3.95
2023-03-05T10:58:58.708Z,3.60
2023-03-05T11:01:28.511Z,5.20
2023-03-05T11:04:03.981Z,19.30
2023-03-05T11:06:35.247Z,7.45
2023-03-05T11:09:24.485Z,6.28
2023-03-05T11:12:00.440Z,5.80
2023-03-05T11:14:33.418Z,12.30
2023-03-05T11:17:01.955Z,6.88
2023-03-05T11:19:34.727Z,5.10
2023-03-05T11:22:11.030Z,8.90
2023-03-05T11:24:38.052Z,5.00
2023-03-05T11:27:23.469Z,7.03
2023-03-05T11:32:22.893Z,16.38
2023-03-05T11:34:49.911Z,12.73
2023-03-05T11:37:26.676Z,13.75
2023-03-05T11:40:21.175Z,9.65
2023-03-05T11:42:55.644Z,13.25
2023-03-05T11:45:24.000Z,3.03
2023-03-05T11:47:53.771Z,5.80
2023-03-05T11:50:24.828Z,3.33
2023-03-05T11:52:57.996Z,6.57
2023-03-05T11:55:33.879Z,18.02
2023-03-05T11:58:11.278Z,13.77
2023-03-05T12:00:43.217Z,6.07
2023-03-05T12:03:17.852Z,7.40
2023-03-05T12:05:56.329Z,17.63
2023-03-05T12:08:32.336Z,10.77
2023-03-05T12:11:17.936Z,20.00
2023-03-05T12:14:07.329Z,11.88
2023-03-05T12:16:41.752Z,7.97
2023-03-05T12:19:28.603Z,20.60
2023-03-05T12:21:57.171Z,6.22
2023-03-05T12:24:26.694Z,9.25
2023-03-05T12:26:57.180Z,12.60
2023-03-05T12:29:28.528Z,12.65
2023-03-05T12:31:55.390Z,18.60
2023-03-05T12:34:40.689Z,5.97
2023-03-05T12:40:01.090Z,6.70
2023-03-05T12:42:31.515Z,9.50
2023-03-05T12:45:14.597Z,22.00
2023-03-05T12:48:10.760Z,17.80
2023-03-05T12:50:37.442Z,25.63
2023-03-05T12:53:04.382Z,20.25
2023-03-05T12:55:36.243Z,5.60
2023-03-05T12:58:12.719Z,13.57
2023-03-05T13:00:52.127Z,7.47
2023-03-05T13:03:24.054Z,11.00
2023-03-05T13:05:56.636Z,11.93
2023-03-05T13:08:28.131Z,7.88
2023-03-05T13:11:05.208Z,9.27
2023-03-05T13:13:43.980Z,14.75
2023-03-05T13:16:29.263Z,5.68
2023-03-05T13:21:31.433Z,13.38
2023-03-05T13:24:01.136Z,15.63
2023-03-05T13:26:37.062Z,7.43
2023-03-05T13:29:19.937Z,5.85
2023-03-05T13:31:59.135Z,5.53
2023-03-05T13:34:40.936Z,7.40
2023-03-05T13:37:19.007Z,4.90
2023-03-05T13:39:56.859Z,21.70
2023-03-05T13:42:32.970Z,6.22
2023-03-05T13:45:24.216Z,5.55
2023-03-05T13:47:54.038Z,6.88
2023-03-05T13:50:33.105Z,8.65
2023-03-05T13:53:19.479Z,14.02
2023-03-05T13:55:50.757Z,19.83
2023-03-05T13:59:03.081Z,14.55
2023-03-05T14:01:33.737Z,17.08
2023-03-05T14:04:09.078Z,19.52
2023-03-05T14:06:43.462Z,17.58
2023-03-05T14:09:32.905Z,16.10
2023-03-05T14:11:59.760Z,14.30
2023-03-05T14:14:28.662Z,20.70
2023-03-05T14:16:55.764Z,16.40
2023-03-05T14:19:31.984Z,7.72
2023-03-05T14:21:58.836Z,13.80
2023-03-05T14:24:28.758Z,7.82
2023-03-05T14:26:57.407Z,10.30
2023-03-05T14:29:26.540Z,15.98
2023-03-05T14:32:00.659Z,22.90
2023-03-05T14:34:33.873Z,22.02
2023-03-05T14:37:17.215Z,22.90
2023-03-05T14:39:52.441Z,22.42
2023-03-05T14:42:32.289Z,23.40
2023-03-05T14:45:13.034Z,25.85
2023-03-05T14:47:40.035Z,30.83
2023-03-05T14:50:08.582Z,28.92
2023-03-05T14:52:35.875Z,28.50
2023-03-05T14:55:02.984Z,24.92
2023-03-05T14:57:32.403Z,26.05
2023-03-05T14:59:59.199Z,29.38
2023-03-05T15:02:27.281Z,33.92
2023-03-05T15:04:54.222Z,33.08
2023-03-05T15:07:23.357Z,37.17
2023-03-05T15:09:50.213Z,36.83
2023-03-05T15:12:17.848Z,43.53
2023-03-05T15:14:45.070Z,48.03
2023-03-05T15:17:34.423Z,45.90
2023-03-05T15:20:02.371Z,32.85
2023-03-05T15:22:29.099Z,34.53
2023-03-05T15:24:55.820Z,31.13
2023-03-05T15:27:22.535Z,33.03
2023-03-05T15:29:49.215Z,28.85
2023-03-05T15:32:15.942Z,26.98
2023-03-05T15:34:42.787Z,26.08
2023-03-05T15:37:09.842Z,28.37
2023-03-05T15:39:36.549Z,31.45
2023-03-05T15:42:06.222Z,25.42
2023-03-05T15:44:33.078Z,28.95
2023-03-05T15:46:59.740Z,27.33
2023-03-05T15:49:26.530Z,23.92
2023-03-05T15:51:55.017Z,23.48
2023-03-05T15:54:21.877Z,17.90
2023-03-05T15:56:49.225Z,25.77
2023-03-05T15:59:15.992Z,21.10
2023-03-05T16:01:48.939Z,23.47
2023-03-05T16:04:17.190Z,16.58
2023-03-05T16:06:47.037Z,22.95
2023-03-05T16:09:16.351Z,19.80
2023-03-05T16:11:48.104Z,53.10
2023-03-05T16:14:22.690Z,25.75
2023-03-05T16:16:50.872Z,23.42
2023-03-05T16:19:19.532Z,28.77
2023-03-05T16:21:46.985Z,31.00
2023-03-05T16:24:14.443Z,36.75
2023-03-05T16:26:42.323Z,43.93
2023-03-05T16:29:09.436Z,25.23
2023-03-05T16:31:38.331Z,22.80
2023-03-05T16:34:05.250Z,23.67
2023-03-05T16:36:35.490Z,28.92
2023-03-05T16:39:04.778Z,38.43
2023-03-05T16:41:32.307Z,40.23
2023-03-05T16:43:59.944Z,46.97
2023-03-05T16:46:29.476Z,56.70
2023-03-05T16:48:56.706Z,60.83
2023-03-05T16:51:23.649Z,62.97
2023-03-05T16:54:00.179Z,63.87
2023-03-05T16:56:26.955Z,66.60
2023-03-05T16:58:56.510Z,59.70
2023-03-05T17:01:24.405Z,47.47
2023-03-05T17:03:52.698Z,52.67
2023-03-05T17:06:22.725Z,58.90
2023-03-05T17:08:50.098Z,67.10
2023-03-05T17:11:18.047Z,43.03
2023-03-05T17:13:47.087Z,44.43
2023-03-05T17:16:18.151Z,48.10
2023-03-05T17:18:45.396Z,50.97
2023-03-05T17:21:12.350Z,38.35
2023-03-05T17:23:40.117Z,39.47
2023-03-05T17:26:08.982Z,42.83
2023-03-05T17:28:35.788Z,45.20
2023-03-05T17:31:04.127Z,47.27
2023-03-05T17:33:32.185Z,64.20
2023-03-05T17:35:59.355Z,38.47
2023-03-05T17:38:27.038Z,34.60
2023-03-05T17:40:54.299Z,43.70
2023-03-05T17:43:21.093Z,35.87
2023-03-05T17:45:48.368Z,44.27
2023-03-05T17:48:21.579Z,50.90
2023-03-05T17:50:48.249Z,47.27
2023-03-05T17:53:15.003Z,46.97
2023-03-05T17:55:41.738Z,49.63
2023-03-05T17:58:08.972Z,54.65
2023-03-05T18:00:36.553Z,58.50
2023-03-05T18:03:03.697Z,47.70
2023-03-05T18:05:30.975Z,46.15
2023-03-05T18:07:59.046Z,43.42
2023-03-05T18:10:27.555Z,44.85
2023-03-05T18:12:54.760Z,42.55
2023-03-05T18:15:23.290Z,40.17
2023-03-05T18:17:50.386Z,39.25
2023-03-05T18:20:34.328Z,41.35
2023-03-05T18:23:02.522Z,41.78
2023-03-05T18:25:33.677Z,42.40
2023-03-05T18:28:02.223Z,57.22
2023-03-05T18:30:30.170Z,53.40
2023-03-05T18:32:56.985Z,52.90
2023-03-05T18:35:24.586Z,45.65
2023-03-05T18:37:51.476Z,31.55
2023-03-05T18:40:22.569Z,30.27
2023-03-05T18:42:49.940Z,32.58
2023-03-05T18:45:18.897Z,29.93
2023-03-05T18:47:46.932Z,31.42
2023-03-05T18:50:16.879Z,36.08
2023-03-05T18:52:43.721Z,36.67
2023-03-05T18:55:36.737Z,42.40
2023-03-05T18:58:03.508Z,39.30
2023-03-05T19:00:31.892Z,39.50
2023-03-05T19:02:58.988Z,27.40
2023-03-05T19:05:26.855Z,29.45
2023-03-05T19:07:54.800Z,28.38
2023-03-05T19:10:22.720Z,30.30
2023-03-05T19:12:56.865Z,27.67
2023-03-05T19:15:23.693Z,26.98
2023-03-05T19:17:50.491Z,29.57
2023-03-05T19:20:18.869Z,32.70
2023-03-05T19:22:45.646Z,36.35
2023-03-05T19:25:12.702Z,38.53
2023-03-05T19:27:39.867Z,44.37
2023-03-05T19:30:07.250Z,47.30
2023-03-05T19:32:34.216Z,49.47
2023-03-05T19:35:01.225Z,51.43
2023-03-05T19:37:28.263Z,56.00
2023-03-05T19:39:55.074Z,40.33
2023-03-05T19:42:21.916Z,39.33
2023-03-05T19:44:49.031Z,42.80
2023-03-05T19:47:15.697Z,44.60
2023-03-05T19:49:42.572Z,45.33
2023-03-05T19:52:09.624Z,40.10
2023-03-05T19:54:36.503Z,46.97
2023-03-05T19:57:03.718Z,44.73
2023-03-05T19:59:30.382Z,45.93
2023-03-05T20:01:57.658Z,49.80
2023-03-05T20:04:24.933Z,66.87
2023-03-05T20:06:51.669Z,68.10
2023-03-05T20:09:18.724Z,72.30
2023-03-05T20:11:47.155Z,62.73
2023-03-05T20:14:14.760Z,128.47
2023-03-05T20:16:43.338Z,78.67
2023-03-05T20:19:16.555Z,46.50
2023-03-05T20:21:44.218Z,48.17
2023-03-05T20:24:14.277Z,58.80
2023-03-05T20:26:42.727Z,53.30
2023-03-05T20:29:10.078Z,47.67
2023-03-05T20:31:37.456Z,39.40
2023-03-05T20:34:07.198Z,40.27
2023-03-05T20:36:34.843Z,42.70
2023-03-05T20:39:03.389Z,40.23
2023-03-05T20:41:31.220Z,41.17
2023-03-05T20:43:58.029Z,41.43
2023-03-05T20:46:27.655Z,46.93
2023-03-05T20:48:57.733Z,50.60
2023-03-05T20:51:27.667Z,43.03
2023-03-05T20:54:02.554Z,33.10
2023-03-05T20:59:04.189Z,25.97
2023-03-05T21:01:33.258Z,43.37
2023-03-05T21:04:01.127Z,36.10
2023-03-05T21:06:29.365Z,41.00
2023-03-05T21:08:57.602Z,47.03
2023-03-05T21:11:24.644Z,40.33
2023-03-05T21:13:51.440Z,42.70
2023-03-05T21:16:20.952Z,41.80
2023-03-05T21:18:48.133Z,43.90
2023-03-05T21:21:15.013Z,56.27
2023-03-05T21:23:41.715Z,47.50
2023-03-05T21:26:08.665Z,48.33
2023-03-05T21:28:35.654Z,47.03
2023-03-05T21:31:16.784Z,40.80
2023-03-05T21:33:43.914Z,44.87
2023-03-05T21:36:10.895Z,46.63
2023-03-05T21:38:37.832Z,51.60
2023-03-05T21:41:05.469Z,46.30
2023-03-05T21:43:32.829Z,48.30
2023-03-05T21:46:03.408Z,45.13
2023-03-05T21:48:31.250Z,40.90
2023-03-05T21:50:58.589Z,43.37
2023-03-05T21:53:25.984Z,39.83
2023-03-05T21:56:05.415Z,39.87
2023-03-05T21:58:33.956Z,35.50
2023-03-05T22:01:01.157Z,38.53
2023-03-05T22:03:28.568Z,37.53
2023-03-05T22:05:56.313Z,30.90
2023-03-05T22:08:24.123Z,40.50
2023-03-05T22:10:51.382Z,40.33
2023-03-05T22:13:20.154Z,38.77
2023-03-05T22:15:50.390Z,38.53
2023-03-05T22:18:19.957Z,39.43
2023-03-05T22:20:47.692Z,54.60
2023-03-05T22:23:15.088Z,44.83
2023-03-05T22:25:43.024Z,42.40
2023-03-05T22:28:11.598Z,56.33
2023-03-05T22:30:47.280Z,55.27
2023-03-05T22:33:13.976Z,72.63
2023-03-05T22:35:41.838Z,36.60
2023-03-05T22:38:12.682Z,31.30
2023-03-05T22:40:45.283Z,31.80
2023-03-05T22:43:12.598Z,33.17
2023-03-05T22:45:40.034Z,35.67
2023-03-05T22:48:07.311Z,35.67
2023-03-05T22:50:34.022Z,35.87
2023-03-05T22:53:00.740Z,38.63
2023-03-05T22:55:27.505Z,46.87
2023-03-05T22:57:54.695Z,41.90
2023-03-05T23:00:26.798Z,45.87
2023-03-05T23:02:53.848Z,44.10
2023-03-05T23:05:20.855Z,42.47
2023-03-05T23:07:47.530Z,35.10
2023-03-05T23:10:17.904Z,34.53
2023-03-05T23:12:49.426Z,34.60
2023-03-05T23:15:24.088Z,32.33
2023-03-05T23:17:50.981Z,35.17
2023-03-05T23:20:20.896Z,38.60
2023-03-05T23:22:48.369Z,47.13
2023-03-05T23:25:16.563Z,44.50
2023-03-05T23:27:43.802Z,46.70
2023-03-05T23:30:25.542Z,40.30
2023-03-05T23:33:13.987Z,44.17
2023-03-05T23:35:52.097Z,48.03
2023-03-05T23:38:19.406Z,52.50
2023-03-05T23:40:48.810Z,52.13
2023-03-05T23:43:17.432Z,59.13
2023-03-05T23:45:46.188Z,53.67
2023-03-05T23:48:12.878Z,50.83
2023-03-05T23:50:43.230Z,54.70
2023-03-05T23:53:10.904Z,41.53
2023-03-05T23:55:44.271Z,29.33
2023-03-05T23:58:11.713Z,31.23
